หน้าหลัก
METAR-TAF:

METAR-TAF

ท่าอากาศยาน :

มาปูโต, โมซัมบิก

ละติจูด: 25-55S, ลองจิจูด: 032-34E, ความสูง: 39 ม.

การสังเกตสภาพอากาศปัจจุบัน

รายงานได้ทำขึ้นเมื่อ 25 นาทีที่แล้ว ณ เวลา 08:00 UTC
ลม 8 นอตจากเหนือ
อุณหภูมิ 27°C
ความชื้น 70%
ความกดอากาศ 1016 hPa
ทัศนวิสัย 10 กม. หรือมากกว่า
มีเมฆน้อยที่ความสูง 2000 ฟุต

METAR: FQMA 200800Z 35008KT 9999 FEW020 27/21 Q1016 NOSIG

เวลา: 10:25 (08:25 UTC)

การพยากรณ์

รายงานได้ทำขึ้นเมื่อ 4 ชั่วโมงและ 25 นาทีที่แล้ว ณ เวลา 04:00 UTC
การพยากรณ์มีผลตั้งแต่วันที่ 20 ณ เวลา 06 UTC จนถึงวันที่ 21 ณ เวลา 12 UTC
ลม 3 นอตจากเหนือ
ทัศนวิสัย 10 กม. หรือมากกว่า
มีเมฆน้อยที่ความสูง 2500 ฟุต
กำลังกลายเป็น
ตั้งแต่วันที่ 20 ณ เวลา 17 UTC จนถึงวันที่ 20 ณ เวลา 19 UTC
ลม 8 นอตจากตะวันออก/ตะวันออกเฉียงเหนือ
กำลังกลายเป็น
ตั้งแต่วันที่ 21 ณ เวลา 00 UTC จนถึงวันที่ 21 ณ เวลา 01 UTC
ลม 7 นอตจากเหนือ

TAF: FQMA 200400Z 2006/2112 36003KT 9999 FEW025 TX30/2013Z TN20/2102Z BECMG 2017/2019 07008KT BECMG 2100/2101 01007KT

สังเกตการณ์สภาพอากาศและพยากรณ์อากาศของสนามบินมากกว่า 4000 แห่ง (รายงาน METAR และ TAF).

สถานีที่ดูได้จะแสดงไว้ด้วยจุดสีเหลืองและสีแดงบนแผนที่.

เลื่อนเมาส์ไปเหนือจุดเพื่อดูชื่อสถานี.

แล้วคลิกเพื่อดูสังเกตการณ์และการพยากรณ์สภาพอากาศ.

ในการเปลี่ยนแผนที่: คลิกที่ปุ่มสีเขียวที่มีกากบาทสีดำเพื่อซูมเข้า; ที่ปุ่มสีเขียวที่มีขีดเพื่อซูมออก; หรือที่ลูกศรสีเขียวเพื่อไปยังแผนที่ที่อยู่ติดกัน.


METAR-TAF: